Black Brook, Wisconsin
Current Conditions -  °F | °C
As of 7:15 PM on Thursday 18 Dec 2014 (Local Time) from KRNH Reporting Station
Overcast Overcast  
Wind Chill: -5°   Ceiling: 1300
Heat Index: -5°   Visibility: 10mi
Dew Point: -7°   Wind: 3mph
Humidity: 89%   Direction: 110°ESE
Pressure: 30.26"   Gusts: NA
Location:  45.2417°N, 92.2543°W
Report Text: KRNH 190115Z AUTO 11003KT 10SM OVC013 M05/M07 A3026 RMK AO2 T10541070
Loading
Personal Weather Stations






























Interactive Weather Map New forecast layout! Learn more

10-Day Weather Forecast

Advertisements
Track Severe Weather on mobile